BEL5BN EBBR-LIMC
Flight info
| Callsign | BEL5BN |
|---|---|
| Flight time | N/A |
| Altitude | 35000 |
| Route | ROUSY DCT GTQ DCT DEVDI DCT RIPUS DCT GERSA DCT SOSON DCT DEGAD Z424 BASGO/N0468F290 Z424 AKASU/N0399F190 Z424 RIXUV |
| Aircraft | A320/M-SDE3FGHIRWY/LB1 |
Departure
| Time | 2026-05-05 09:57 |
|---|---|
| Airport | Brussels Airport (EBBR) |
Arrival
| Time | N/A |
|---|---|
| Airport | Milan Malpensa International Airport (LIMC) |
| Time | Latitude | Longitude | Altitude | Speed | Heading |
|---|---|---|---|---|---|
| 2026-05-05 09:13 | 50.90379 | 4.48911 | 128 ft | 0 kts | 333° |
| 2026-05-05 09:16 | 50.90379 | 4.48912 | 128 ft | 0 kts | 333° |
| 2026-05-05 09:48 | 50.90378 | 4.48912 | 128 ft | 1 kts | 334° |
| 2026-05-05 09:48 | 50.90364 | 4.48923 | 124 ft | 2 kts | 338° |
| 2026-05-05 09:48 | 50.90348 | 4.48932 | 129 ft | 2 kts | 342° |
| 2026-05-05 09:49 | 50.90333 | 4.48940 | 132 ft | 2 kts | 349° |
| 2026-05-05 09:49 | 50.90316 | 4.48943 | 133 ft | 2 kts | 3° |
| 2026-05-05 09:49 | 50.90300 | 4.48939 | 135 ft | 2 kts | 29° |
| 2026-05-05 09:49 | 50.90287 | 4.48923 | 135 ft | 2 kts | 57° |
| 2026-05-05 09:50 | 50.90282 | 4.48910 | 135 ft | 1 kts | 66° |
| 2026-05-05 09:50 | 50.90281 | 4.48908 | 135 ft | 0 kts | 66° |
| 2026-05-05 09:51 | 50.90289 | 4.48935 | 135 ft | 5 kts | 65° |
| 2026-05-05 09:51 | 50.90311 | 4.49012 | 136 ft | 10 kts | 66° |
| 2026-05-05 09:51 | 50.90347 | 4.49131 | 135 ft | 14 kts | 64° |
| 2026-05-05 09:51 | 50.90390 | 4.49277 | 134 ft | 16 kts | 66° |
| 2026-05-05 09:52 | 50.90402 | 4.49437 | 133 ft | 12 kts | 126° |
| 2026-05-05 09:52 | 50.90343 | 4.49440 | 137 ft | 9 kts | 201° |
| 2026-05-05 09:52 | 50.90298 | 4.49414 | 140 ft | 4 kts | 198° |
| 2026-05-05 09:52 | 50.90276 | 4.49403 | 140 ft | 2 kts | 198° |
| 2026-05-05 09:53 | 50.90263 | 4.49397 | 141 ft | 3 kts | 197° |
| 2026-05-05 09:53 | 50.90229 | 4.49383 | 142 ft | 7 kts | 193° |
| 2026-05-05 09:53 | 50.90164 | 4.49358 | 145 ft | 11 kts | 194° |
| 2026-05-05 09:53 | 50.90081 | 4.49324 | 150 ft | 14 kts | 193° |
| 2026-05-05 09:54 | 50.89987 | 4.49378 | 154 ft | 16 kts | 153° |
| 2026-05-05 09:54 | 50.89867 | 4.49354 | 158 ft | 20 kts | 194° |
| 2026-05-05 09:54 | 50.89726 | 4.49296 | 162 ft | 20 kts | 193° |
| 2026-05-05 09:54 | 50.89584 | 4.49201 | 163 ft | 23 kts | 207° |
| 2026-05-05 09:55 | 50.89475 | 4.49153 | 164 ft | 26 kts | 193° |
| 2026-05-05 09:55 | 50.89262 | 4.49065 | 166 ft | 24 kts | 194° |
| 2026-05-05 09:55 | 50.89145 | 4.49022 | 169 ft | 28 kts | 192° |
| 2026-05-05 09:55 | 50.88945 | 4.48936 | 176 ft | 32 kts | 195° |
| 2026-05-05 09:56 | 50.88795 | 4.48885 | 196 ft | 17 kts | 184° |
| 2026-05-05 09:56 | 50.88734 | 4.48998 | 195 ft | 14 kts | 110° |
| 2026-05-05 09:56 | 50.88747 | 4.49159 | 186 ft | 19 kts | 28° |
| 2026-05-05 09:56 | 50.88789 | 4.49176 | 192 ft | 0 kts | 12° |
| 2026-05-05 09:57 | 50.88834 | 4.49191 | 185 ft | 30 kts | 13° |
| 2026-05-05 09:57 | 50.89286 | 4.49398 | 168 ft | 101 kts | 15° |
| 2026-05-05 09:57 | 50.90151 | 4.49761 | 145 ft | 154 kts | 14° |
| 2026-05-05 09:57 | 50.91183 | 4.50182 | 778 ft | 145 kts | 17° |
| 2026-05-05 09:58 | 50.92059 | 4.50765 | 1560 ft | 131 kts | 38° |
| 2026-05-05 09:58 | 50.92616 | 4.51883 | 1914 ft | 142 kts | 66° |
| 2026-05-05 09:58 | 50.92807 | 4.53461 | 2214 ft | 151 kts | 90° |
| 2026-05-05 09:58 | 50.92499 | 4.55086 | 2608 ft | 159 kts | 119° |
| 2026-05-05 09:59 | 50.91822 | 4.56497 | 3070 ft | 161 kts | 123° |
| 2026-05-05 09:59 | 50.91129 | 4.57926 | 3402 ft | 170 kts | 123° |
| 2026-05-05 09:59 | 50.90369 | 4.59509 | 3532 ft | 190 kts | 123° |
| 2026-05-05 09:59 | 50.89494 | 4.61188 | 3644 ft | 211 kts | 136° |
| 2026-05-05 10:00 | 50.88133 | 4.62331 | 3785 ft | 235 kts | 165° |
| 2026-05-05 10:00 | 50.86431 | 4.62634 | 3922 ft | 257 kts | 173° |
| 2026-05-05 10:00 | 50.84597 | 4.62872 | 4211 ft | 269 kts | 173° |
| 2026-05-05 10:00 | 50.82717 | 4.63114 | 4693 ft | 272 kts | 173° |
| 2026-05-05 10:01 | 50.80818 | 4.63359 | 5212 ft | 275 kts | 172° |
| 2026-05-05 10:01 | 50.78908 | 4.63614 | 5680 ft | 277 kts | 173° |
| 2026-05-05 10:01 | 50.76976 | 4.63882 | 6142 ft | 280 kts | 173° |
| 2026-05-05 10:01 | 50.75031 | 4.64176 | 6587 ft | 281 kts | 169° |
| 2026-05-05 10:02 | 50.73176 | 4.65085 | 7003 ft | 280 kts | 150° |
| 2026-05-05 10:02 | 50.71598 | 4.66849 | 7422 ft | 277 kts | 132° |
| 2026-05-05 10:02 | 50.70459 | 4.69276 | 7840 ft | 275 kts | 114° |
| 2026-05-05 10:02 | 50.69815 | 4.72110 | 8260 ft | 275 kts | 104° |
| 2026-05-05 10:03 | 50.69284 | 4.75022 | 8677 ft | 277 kts | 104° |
| 2026-05-05 10:03 | 50.68746 | 4.77948 | 9104 ft | 279 kts | 104° |
| 2026-05-05 10:03 | 50.68197 | 4.80888 | 9513 ft | 280 kts | 104° |
| 2026-05-05 10:03 | 50.67642 | 4.83852 | 9899 ft | 282 kts | 104° |
| 2026-05-05 10:04 | 50.67085 | 4.86815 | 10084 ft | 290 kts | 105° |
| 2026-05-05 10:04 | 50.66350 | 4.89841 | 10207 ft | 301 kts | 115° |
| 2026-05-05 10:04 | 50.65243 | 4.92699 | 10333 ft | 310 kts | 126° |
| 2026-05-05 10:04 | 50.63769 | 4.95237 | 10447 ft | 318 kts | 134° |
| 2026-05-05 10:05 | 50.62164 | 4.97691 | 10591 ft | 323 kts | 134° |
| 2026-05-05 10:05 | 50.60552 | 5.00179 | 10773 ft | 325 kts | 134° |
| 2026-05-05 10:05 | 50.58940 | 5.02687 | 10992 ft | 326 kts | 134° |
| 2026-05-05 10:05 | 50.57321 | 5.05207 | 11208 ft | 327 kts | 134° |
| 2026-05-05 10:06 | 50.55696 | 5.07726 | 11410 ft | 328 kts | 134° |
| 2026-05-05 10:06 | 50.54063 | 5.10248 | 11623 ft | 329 kts | 134° |
| 2026-05-05 10:06 | 50.52424 | 5.12773 | 11829 ft | 330 kts | 134° |
| 2026-05-05 10:06 | 50.50802 | 5.15270 | 12028 ft | 331 kts | 134° |
| 2026-05-05 10:07 | 50.49151 | 5.17808 | 12245 ft | 332 kts | 134° |
| 2026-05-05 10:07 | 50.47496 | 5.20346 | 12461 ft | 333 kts | 135° |
| 2026-05-05 10:07 | 50.45839 | 5.22889 | 12652 ft | 334 kts | 135° |
| 2026-05-05 10:07 | 50.44175 | 5.25449 | 12811 ft | 335 kts | 135° |
| 2026-05-05 10:08 | 50.42505 | 5.28020 | 12981 ft | 336 kts | 135° |
| 2026-05-05 10:08 | 50.40835 | 5.30587 | 13145 ft | 337 kts | 135° |
| 2026-05-05 10:08 | 50.39155 | 5.33157 | 13301 ft | 337 kts | 135° |
| 2026-05-05 10:08 | 50.37492 | 5.35700 | 13456 ft | 338 kts | 136° |
| 2026-05-05 10:09 | 50.35801 | 5.38285 | 13610 ft | 339 kts | 136° |
| 2026-05-05 10:09 | 50.34112 | 5.40862 | 13752 ft | 340 kts | 136° |
| 2026-05-05 10:09 | 50.32416 | 5.43454 | 13883 ft | 340 kts | 136° |
| 2026-05-05 10:09 | 50.30718 | 5.46044 | 13996 ft | 341 kts | 136° |
| 2026-05-05 10:10 | 50.29012 | 5.48638 | 14124 ft | 342 kts | 136° |
| 2026-05-05 10:10 | 50.27318 | 5.51213 | 14241 ft | 343 kts | 136° |
| 2026-05-05 10:10 | 50.25607 | 5.53809 | 14366 ft | 343 kts | 136° |
| 2026-05-05 10:10 | 50.23890 | 5.56407 | 14487 ft | 344 kts | 136° |
| 2026-05-05 10:11 | 50.22170 | 5.59005 | 14604 ft | 344 kts | 137° |
| 2026-05-05 10:11 | 50.20451 | 5.61603 | 14725 ft | 344 kts | 137° |
| 2026-05-05 10:11 | 50.18728 | 5.64207 | 14848 ft | 345 kts | 137° |
| 2026-05-05 10:11 | 50.16999 | 5.66813 | 14965 ft | 345 kts | 137° |
| 2026-05-05 10:12 | 50.15272 | 5.69411 | 15084 ft | 345 kts | 137° |
| 2026-05-05 10:12 | 50.13547 | 5.72009 | 15209 ft | 345 kts | 137° |
| 2026-05-05 10:12 | 50.11819 | 5.74611 | 15337 ft | 346 kts | 137° |
| 2026-05-05 10:12 | 50.10084 | 5.77222 | 15465 ft | 347 kts | 137° |
| 2026-05-05 10:13 | 50.08256 | 5.79588 | 15593 ft | 346 kts | 147° |
| 2026-05-05 10:13 | 50.06164 | 5.81421 | 15717 ft | 344 kts | 157° |
| 2026-05-05 10:13 | 50.03917 | 5.82690 | 15842 ft | 343 kts | 162° |
| 2026-05-05 10:13 | 50.01649 | 5.83854 | 15970 ft | 343 kts | 162° |
| 2026-05-05 10:14 | 49.99383 | 5.85023 | 16099 ft | 342 kts | 162° |
| 2026-05-05 10:14 | 49.97125 | 5.86193 | 16227 ft | 341 kts | 162° |
| 2026-05-05 10:14 | 49.94876 | 5.87360 | 16345 ft | 340 kts | 162° |
| 2026-05-05 10:14 | 49.92628 | 5.88525 | 16487 ft | 340 kts | 162° |
| 2026-05-05 10:15 | 49.90388 | 5.89680 | 16606 ft | 339 kts | 162° |
| 2026-05-05 10:15 | 49.88144 | 5.90830 | 16733 ft | 340 kts | 162° |
| 2026-05-05 10:15 | 49.85899 | 5.91978 | 16863 ft | 339 kts | 162° |
| 2026-05-05 10:15 | 49.83663 | 5.93124 | 16989 ft | 338 kts | 162° |
| 2026-05-05 10:16 | 49.81428 | 5.94275 | 17114 ft | 338 kts | 162° |
| 2026-05-05 10:16 | 49.79202 | 5.95419 | 17251 ft | 337 kts | 162° |
| 2026-05-05 10:16 | 49.76975 | 5.96562 | 17374 ft | 336 kts | 162° |
| 2026-05-05 10:16 | 49.74752 | 5.97703 | 17513 ft | 336 kts | 163° |
| 2026-05-05 10:17 | 49.72565 | 5.98823 | 17641 ft | 335 kts | 163° |
| 2026-05-05 10:17 | 49.70342 | 5.99959 | 17773 ft | 335 kts | 163° |
| 2026-05-05 10:17 | 49.68130 | 6.01088 | 17911 ft | 334 kts | 163° |
| 2026-05-05 10:17 | 49.65923 | 6.02215 | 18043 ft | 334 kts | 163° |
| 2026-05-05 10:18 | 49.63713 | 6.03342 | 18166 ft | 333 kts | 163° |
| 2026-05-05 10:18 | 49.61513 | 6.04460 | 18286 ft | 333 kts | 163° |
| 2026-05-05 10:18 | 49.59312 | 6.05574 | 18406 ft | 333 kts | 163° |
| 2026-05-05 10:18 | 49.57112 | 6.06691 | 18512 ft | 332 kts | 163° |
| 2026-05-05 10:19 | 49.54915 | 6.07809 | 18640 ft | 332 kts | 163° |
| 2026-05-05 10:19 | 49.52754 | 6.08907 | 18755 ft | 331 kts | 163° |
| 2026-05-05 10:19 | 49.50562 | 6.10015 | 18872 ft | 331 kts | 163° |
| 2026-05-05 10:19 | 49.48411 | 6.11284 | 18992 ft | 333 kts | 155° |
| 2026-05-05 10:20 | 49.46404 | 6.13093 | 19110 ft | 335 kts | 146° |
| 2026-05-05 10:20 | 49.44571 | 6.15329 | 19233 ft | 337 kts | 142° |
| 2026-05-05 10:20 | 49.42749 | 6.17605 | 19351 ft | 336 kts | 143° |
| 2026-05-05 10:20 | 49.40928 | 6.19860 | 19466 ft | 336 kts | 143° |
| 2026-05-05 10:21 | 49.39108 | 6.22106 | 19590 ft | 335 kts | 143° |
| 2026-05-05 10:21 | 49.37291 | 6.24346 | 19706 ft | 334 kts | 143° |
| 2026-05-05 10:21 | 49.35506 | 6.26549 | 19830 ft | 333 kts | 143° |
| 2026-05-05 10:21 | 49.33702 | 6.28775 | 19956 ft | 332 kts | 143° |
| 2026-05-05 10:22 | 49.31902 | 6.30993 | 20078 ft | 332 kts | 143° |
| 2026-05-05 10:22 | 49.30094 | 6.33217 | 20206 ft | 331 kts | 143° |
| 2026-05-05 10:22 | 49.28288 | 6.35436 | 20334 ft | 332 kts | 143° |
| 2026-05-05 10:22 | 49.26479 | 6.37657 | 20460 ft | 334 kts | 143° |
| 2026-05-05 10:23 | 49.24682 | 6.39863 | 20590 ft | 336 kts | 143° |
| 2026-05-05 10:23 | 49.22850 | 6.42111 | 20716 ft | 339 kts | 143° |
| 2026-05-05 10:23 | 49.21008 | 6.44372 | 20843 ft | 341 kts | 143° |
| 2026-05-05 10:23 | 49.19150 | 6.46651 | 20971 ft | 343 kts | 143° |
| 2026-05-05 10:24 | 49.17287 | 6.48934 | 21095 ft | 344 kts | 143° |
| 2026-05-05 10:24 | 49.15413 | 6.51225 | 21223 ft | 345 kts | 143° |
| 2026-05-05 10:24 | 49.13537 | 6.53513 | 21347 ft | 345 kts | 143° |
| 2026-05-05 10:24 | 49.11663 | 6.55795 | 21473 ft | 343 kts | 143° |
| 2026-05-05 10:25 | 49.09801 | 6.58064 | 21599 ft | 342 kts | 143° |
| 2026-05-05 10:25 | 49.07948 | 6.60318 | 21731 ft | 340 kts | 143° |
| 2026-05-05 10:25 | 49.06104 | 6.62563 | 21860 ft | 339 kts | 143° |
| 2026-05-05 10:25 | 49.04267 | 6.64796 | 21986 ft | 337 kts | 143° |
| 2026-05-05 10:26 | 49.02458 | 6.66994 | 22119 ft | 336 kts | 143° |
| 2026-05-05 10:26 | 49.00631 | 6.69209 | 22251 ft | 335 kts | 143° |
| 2026-05-05 10:26 | 48.98753 | 6.71286 | 22377 ft | 333 kts | 149° |
| 2026-05-05 10:26 | 48.96715 | 6.72935 | 22517 ft | 331 kts | 157° |
| 2026-05-05 10:27 | 48.94616 | 6.74361 | 22652 ft | 330 kts | 157° |
| 2026-05-05 10:27 | 48.92523 | 6.75784 | 22786 ft | 329 kts | 156° |
| 2026-05-05 10:27 | 48.90436 | 6.77207 | 22922 ft | 328 kts | 156° |
| 2026-05-05 10:27 | 48.88357 | 6.78631 | 23057 ft | 327 kts | 156° |
| 2026-05-05 10:28 | 48.86281 | 6.80051 | 23194 ft | 327 kts | 156° |
| 2026-05-05 10:28 | 48.84234 | 6.81444 | 23328 ft | 327 kts | 156° |
| 2026-05-05 10:28 | 48.82137 | 6.82867 | 23457 ft | 326 kts | 156° |
| 2026-05-05 10:28 | 48.80096 | 6.84252 | 23578 ft | 325 kts | 156° |
| 2026-05-05 10:29 | 48.78030 | 6.85657 | 23695 ft | 324 kts | 156° |
| 2026-05-05 10:29 | 48.75975 | 6.87056 | 23806 ft | 324 kts | 156° |
| 2026-05-05 10:29 | 48.73915 | 6.88460 | 23932 ft | 325 kts | 156° |
| 2026-05-05 10:29 | 48.71845 | 6.89865 | 24043 ft | 326 kts | 156° |
| 2026-05-05 10:30 | 48.69769 | 6.91266 | 24162 ft | 327 kts | 156° |
| 2026-05-05 10:30 | 48.67689 | 6.92667 | 24275 ft | 326 kts | 156° |
| 2026-05-05 10:30 | 48.65619 | 6.94063 | 24389 ft | 325 kts | 156° |
| 2026-05-05 10:30 | 48.63558 | 6.95454 | 24501 ft | 323 kts | 156° |
| 2026-05-05 10:31 | 48.61505 | 6.96839 | 24627 ft | 322 kts | 156° |
| 2026-05-05 10:31 | 48.59463 | 6.98220 | 24739 ft | 321 kts | 156° |
| 2026-05-05 10:31 | 48.57424 | 6.99596 | 24862 ft | 320 kts | 156° |
| 2026-05-05 10:31 | 48.55419 | 7.00943 | 24979 ft | 319 kts | 157° |
| 2026-05-05 10:32 | 48.53392 | 7.02301 | 25105 ft | 317 kts | 157° |
| 2026-05-05 10:32 | 48.51377 | 7.03649 | 25223 ft | 316 kts | 157° |
| 2026-05-05 10:32 | 48.49371 | 7.04993 | 25344 ft | 315 kts | 157° |
| 2026-05-05 10:32 | 48.47372 | 7.06334 | 25463 ft | 313 kts | 157° |
| 2026-05-05 10:33 | 48.45384 | 7.07665 | 25584 ft | 312 kts | 157° |
| 2026-05-05 10:33 | 48.43402 | 7.08989 | 25710 ft | 311 kts | 157° |
| 2026-05-05 10:33 | 48.41433 | 7.10304 | 25833 ft | 310 kts | 157° |
| 2026-05-05 10:33 | 48.39463 | 7.11620 | 25956 ft | 308 kts | 157° |
| 2026-05-05 10:34 | 48.37510 | 7.12925 | 26080 ft | 307 kts | 157° |
| 2026-05-05 10:34 | 48.35559 | 7.14224 | 26206 ft | 305 kts | 157° |
| 2026-05-05 10:34 | 48.33619 | 7.15514 | 26338 ft | 305 kts | 157° |
| 2026-05-05 10:34 | 48.31680 | 7.16803 | 26457 ft | 305 kts | 157° |
| 2026-05-05 10:35 | 48.29762 | 7.18079 | 26586 ft | 306 kts | 157° |
| 2026-05-05 10:35 | 48.27813 | 7.19375 | 26715 ft | 306 kts | 157° |
| 2026-05-05 10:35 | 48.25860 | 7.20674 | 26844 ft | 308 kts | 157° |
| 2026-05-05 10:35 | 48.23901 | 7.21976 | 26969 ft | 308 kts | 157° |
| 2026-05-05 10:36 | 48.21943 | 7.23272 | 27099 ft | 308 kts | 158° |
| 2026-05-05 10:36 | 48.19947 | 7.24588 | 27235 ft | 319 kts | 158° |
| 2026-05-05 10:36 | 48.17887 | 7.25943 | 27370 ft | 329 kts | 157° |
| 2026-05-05 10:36 | 48.15752 | 7.27348 | 27504 ft | 341 kts | 157° |
| 2026-05-05 10:37 | 48.13549 | 7.28802 | 27639 ft | 351 kts | 157° |
| 2026-05-05 10:37 | 48.11276 | 7.30301 | 27772 ft | 361 kts | 157° |
| 2026-05-05 10:37 | 48.08946 | 7.31838 | 27906 ft | 372 kts | 157° |
| 2026-05-05 10:37 | 48.06544 | 7.33421 | 28046 ft | 382 kts | 157° |
| 2026-05-05 10:38 | 48.04078 | 7.35043 | 28178 ft | 391 kts | 157° |
| 2026-05-05 10:38 | 48.01568 | 7.36696 | 28315 ft | 397 kts | 157° |
| 2026-05-05 10:38 | 47.99018 | 7.38373 | 28448 ft | 403 kts | 157° |
| 2026-05-05 10:38 | 47.96462 | 7.40049 | 28583 ft | 409 kts | 157° |
| 2026-05-05 10:39 | 47.93841 | 7.41765 | 28728 ft | 414 kts | 157° |
| 2026-05-05 10:39 | 47.91193 | 7.43496 | 28956 ft | 416 kts | 157° |
| 2026-05-05 10:39 | 47.88538 | 7.45232 | 29219 ft | 418 kts | 157° |
| 2026-05-05 10:39 | 47.85871 | 7.46975 | 29486 ft | 419 kts | 157° |
| 2026-05-05 10:40 | 47.83195 | 7.48724 | 29749 ft | 420 kts | 157° |
| 2026-05-05 10:40 | 47.80520 | 7.50469 | 29995 ft | 421 kts | 157° |
| 2026-05-05 10:40 | 47.77845 | 7.52221 | 30274 ft | 420 kts | 155° |
| 2026-05-05 10:40 | 47.75304 | 7.54375 | 30570 ft | 420 kts | 147° |
| 2026-05-05 10:41 | 47.73052 | 7.57097 | 30846 ft | 422 kts | 138° |
| 2026-05-05 10:41 | 47.71110 | 7.60380 | 31122 ft | 426 kts | 130° |
| 2026-05-05 10:41 | 47.69363 | 7.63932 | 31400 ft | 425 kts | 130° |
| 2026-05-05 10:41 | 47.67616 | 7.67470 | 31665 ft | 425 kts | 130° |
| 2026-05-05 10:42 | 47.64106 | 7.74529 | 32208 ft | 425 kts | 130° |
| 2026-05-05 10:42 | 47.62351 | 7.78049 | 32465 ft | 424 kts | 130° |
| 2026-05-05 10:42 | 47.61189 | 7.80378 | 32641 ft | 424 kts | 130° |
| 2026-05-05 10:43 | 47.59433 | 7.83893 | 32904 ft | 424 kts | 130° |
| 2026-05-05 10:43 | 47.57674 | 7.87412 | 33155 ft | 424 kts | 131° |
| 2026-05-05 10:43 | 47.55919 | 7.90926 | 33406 ft | 424 kts | 131° |
| 2026-05-05 10:43 | 47.54159 | 7.94436 | 33663 ft | 424 kts | 130° |
| 2026-05-05 10:44 | 47.52396 | 7.97945 | 33885 ft | 424 kts | 131° |
| 2026-05-05 10:44 | 47.50632 | 8.01453 | 34092 ft | 425 kts | 131° |
| 2026-05-05 10:44 | 47.48866 | 8.04962 | 34288 ft | 426 kts | 131° |
| 2026-05-05 10:44 | 47.47098 | 8.08476 | 34470 ft | 427 kts | 131° |
| 2026-05-05 10:45 | 47.45343 | 8.11964 | 34628 ft | 428 kts | 131° |
| 2026-05-05 10:45 | 47.43561 | 8.15494 | 34798 ft | 429 kts | 131° |
| 2026-05-05 10:45 | 47.41774 | 8.19030 | 34880 ft | 430 kts | 131° |
| 2026-05-05 10:46 | 47.38190 | 8.26119 | 34895 ft | 431 kts | 131° |
| 2026-05-05 10:46 | 47.34587 | 8.33211 | 34899 ft | 432 kts | 131° |
| 2026-05-05 10:47 | 47.30976 | 8.40288 | 34899 ft | 432 kts | 131° |
| 2026-05-05 10:47 | 47.26871 | 8.46583 | 34898 ft | 423 kts | 148° |
| 2026-05-05 10:48 | 47.21654 | 8.50301 | 34894 ft | 415 kts | 168° |
| 2026-05-05 10:48 | 47.15972 | 8.51453 | 34885 ft | 413 kts | 176° |
| 2026-05-05 10:49 | 47.10239 | 8.52266 | 34884 ft | 414 kts | 176° |
| 2026-05-05 10:49 | 47.04542 | 8.53103 | 34881 ft | 414 kts | 176° |
| 2026-05-05 10:50 | 46.98795 | 8.53940 | 34878 ft | 415 kts | 176° |
| 2026-05-05 10:50 | 46.93047 | 8.54778 | 34876 ft | 415 kts | 176° |
| 2026-05-05 10:51 | 46.87302 | 8.55605 | 34886 ft | 415 kts | 176° |
| 2026-05-05 10:51 | 46.81540 | 8.56427 | 34900 ft | 416 kts | 176° |
| 2026-05-05 10:52 | 46.75772 | 8.57254 | 34919 ft | 417 kts | 176° |
| 2026-05-05 10:52 | 46.70024 | 8.58072 | 34947 ft | 417 kts | 176° |
| 2026-05-05 10:53 | 46.64249 | 8.58898 | 34969 ft | 417 kts | 177° |
| 2026-05-05 10:53 | 46.58473 | 8.59718 | 34991 ft | 417 kts | 177° |
| 2026-05-05 10:54 | 46.52688 | 8.60540 | 34999 ft | 417 kts | 177° |
| 2026-05-05 10:54 | 46.46936 | 8.61165 | 34996 ft | 415 kts | 185° |
| 2026-05-05 10:55 | 46.41358 | 8.59448 | 35003 ft | 410 kts | 204° |
| 2026-05-05 10:55 | 46.36415 | 8.55366 | 35001 ft | 409 kts | 212° |
| 2026-05-05 10:56 | 46.31585 | 8.51027 | 35008 ft | 409 kts | 212° |
| 2026-05-05 10:56 | 46.26299 | 8.48043 | 35008 ft | 412 kts | 191° |
| 2026-05-05 10:56 | 46.23433 | 8.47797 | 35012 ft | 415 kts | 180° |
| 2026-05-05 10:57 | 46.20541 | 8.48182 | 35014 ft | 417 kts | 178° |
| 2026-05-05 10:57 | 46.14793 | 8.49009 | 35014 ft | 418 kts | 178° |
| 2026-05-05 10:58 | 46.09055 | 8.50566 | 35010 ft | 426 kts | 164° |
| 2026-05-05 10:58 | 46.03492 | 8.53581 | 35012 ft | 427 kts | 164° |
| 2026-05-05 10:59 | 45.97919 | 8.56587 | 35004 ft | 427 kts | 165° |
| 2026-05-05 10:59 | 45.92333 | 8.59572 | 35006 ft | 429 kts | 165° |
| 2026-05-05 10:59 | 45.89601 | 8.61341 | 35006 ft | 436 kts | 153° |
| 2026-05-05 11:00 | 45.87149 | 8.63959 | 35002 ft | 442 kts | 147° |
| 2026-05-05 11:00 | 45.82397 | 8.69481 | 34999 ft | 442 kts | 147° |
| 2026-05-05 11:01 | 45.77596 | 8.75049 | 34996 ft | 443 kts | 147° |
| 2026-05-05 11:01 | 45.75058 | 8.77470 | 34995 ft | 435 kts | 158° |
| 2026-05-05 11:01 | 45.72399 | 8.79535 | 35000 ft | 435 kts | 158° |
| 2026-05-05 11:02 | 45.67051 | 8.83638 | 34999 ft | 436 kts | 158° |
| 2026-05-05 11:02 | 45.61658 | 8.87562 | 34993 ft | 429 kts | 168° |
| 2026-05-05 11:03 | 45.55908 | 8.89336 | 35005 ft | 423 kts | 175° |
| 2026-05-05 11:03 | 45.50122 | 8.90883 | 35001 ft | 423 kts | 175° |
| 2026-05-05 11:04 | 45.44320 | 8.92427 | 34998 ft | 424 kts | 175° |
| 2026-05-05 11:04 | 45.38520 | 8.93997 | 35011 ft | 424 kts | 175° |
| 2026-05-05 11:05 | 45.32759 | 8.95558 | 35013 ft | 424 kts | 175° |